sensor_id;sensor_type;location;lat;lon;timestamp;temperature;humidity
324;DHT22;149;51.094;17.002;2024-03-02T00:01:43;9.40;99.90
324;DHT22;149;51.094;17.002;2024-03-02T00:04:10;9.50;99.90
324;DHT22;149;51.094;17.002;2024-03-02T00:06:40;9.50;99.90
324;DHT22;149;51.094;17.002;2024-03-02T00:09:09;9.50;99.90
324;DHT22;149;51.094;17.002;2024-03-02T00:11:39;9.50;99.90
324;DHT22;149;51.094;17.002;2024-03-02T00:14:07;9.40;99.90
324;DHT22;149;51.094;17.002;2024-03-02T00:16:35;9.30;99.90
324;DHT22;149;51.094;17.002;2024-03-02T00:19:08;9.30;99.90
324;DHT22;149;51.094;17.002;2024-03-02T00:21:36;9.20;99.90
324;DHT22;149;51.094;17.002;2024-03-02T00:24:28;9.00;99.90
324;DHT22;149;51.094;17.002;2024-03-02T00:27:13;9.10;99.90
324;DHT22;149;51.094;17.002;2024-03-02T00:29:42;9.10;99.90
324;DHT22;149;51.094;17.002;2024-03-02T00:32:13;9.00;99.90
324;DHT22;149;51.094;17.002;2024-03-02T00:34:42;9.00;99.90
324;DHT22;149;51.094;17.002;2024-03-02T00:37:12;9.10;99.90
324;DHT22;149;51.094;17.002;2024-03-02T00:39:41;9.30;99.90
324;DHT22;149;51.094;17.002;2024-03-02T00:42:09;9.10;99.90
324;DHT22;149;51.094;17.002;2024-03-02T00:44:37;9.10;99.90
324;DHT22;149;51.094;17.002;2024-03-02T00:47:04;9.10;99.90
324;DHT22;149;51.094;17.002;2024-03-02T00:49:32;9.00;99.90
324;DHT22;149;51.094;17.002;2024-03-02T00:52:00;9.00;99.90
324;DHT22;149;51.094;17.002;2024-03-02T00:54:29;9.10;99.90
324;DHT22;149;51.094;17.002;2024-03-02T00:56:58;9.20;99.90
324;DHT22;149;51.094;17.002;2024-03-02T00:59:25;9.10;99.90
324;DHT22;149;51.094;17.002;2024-03-02T01:01:52;9.10;99.90
324;DHT22;149;51.094;17.002;2024-03-02T01:04:21;9.40;99.90
324;DHT22;149;51.094;17.002;2024-03-02T01:06:49;9.10;99.90
324;DHT22;149;51.094;17.002;2024-03-02T01:09:17;9.30;99.90
324;DHT22;149;51.094;17.002;2024-03-02T01:11:47;9.20;99.90
324;DHT22;149;51.094;17.002;2024-03-02T01:14:17;9.30;99.90
324;DHT22;149;51.094;17.002;2024-03-02T01:16:45;9.30;99.90
324;DHT22;149;51.094;17.002;2024-03-02T01:19:19;9.30;99.90
324;DHT22;149;51.094;17.002;2024-03-02T01:21:46;9.30;99.90
324;DHT22;149;51.094;17.002;2024-03-02T01:24:13;9.10;99.90
324;DHT22;149;51.094;17.002;2024-03-02T01:26:42;9.20;99.90
324;DHT22;149;51.094;17.002;2024-03-02T01:29:11;9.20;99.90
324;DHT22;149;51.094;17.002;2024-03-02T01:31:38;9.20;99.90
324;DHT22;149;51.094;17.002;2024-03-02T01:34:10;9.30;99.90
324;DHT22;149;51.094;17.002;2024-03-02T01:36:42;9.30;99.90
324;DHT22;149;51.094;17.002;2024-03-02T01:39:11;9.30;99.90
324;DHT22;149;51.094;17.002;2024-03-02T01:41:38;9.40;99.90
324;DHT22;149;51.094;17.002;2024-03-02T01:44:05;9.20;99.90
324;DHT22;149;51.094;17.002;2024-03-02T01:46:34;9.30;99.90
324;DHT22;149;51.094;17.002;2024-03-02T01:49:01;9.30;99.90
324;DHT22;149;51.094;17.002;2024-03-02T01:51:30;9.30;99.90
324;DHT22;149;51.094;17.002;2024-03-02T01:53:58;9.30;99.90
324;DHT22;149;51.094;17.002;2024-03-02T01:56:25;9.30;99.90
324;DHT22;149;51.094;17.002;2024-03-02T01:58:52;9.40;99.90
324;DHT22;149;51.094;17.002;2024-03-02T02:01:20;9.30;99.90
324;DHT22;149;51.094;17.002;2024-03-02T02:03:47;9.10;99.90
324;DHT22;149;51.094;17.002;2024-03-02T02:06:14;9.20;99.90
324;DHT22;149;51.094;17.002;2024-03-02T02:08:41;9.20;99.90
324;DHT22;149;51.094;17.002;2024-03-02T02:11:09;9.10;99.90
324;DHT22;149;51.094;17.002;2024-03-02T02:13:36;9.20;99.90
324;DHT22;149;51.094;17.002;2024-03-02T02:16:08;9.20;99.90
324;DHT22;149;51.094;17.002;2024-03-02T02:18:37;9.20;99.90
324;DHT22;149;51.094;17.002;2024-03-02T02:21:04;9.20;99.90
324;DHT22;149;51.094;17.002;2024-03-02T02:23:32;9.20;99.90
324;DHT22;149;51.094;17.002;2024-03-02T02:26:01;9.20;99.90
324;DHT22;149;51.094;17.002;2024-03-02T02:28:33;9.20;99.90
324;DHT22;149;51.094;17.002;2024-03-02T02:31:01;9.10;99.90
324;DHT22;149;51.094;17.002;2024-03-02T02:33:31;9.10;99.90
324;DHT22;149;51.094;17.002;2024-03-02T02:35:57;9.00;99.90
324;DHT22;149;51.094;17.002;2024-03-02T02:38:28;9.00;99.90
324;DHT22;149;51.094;17.002;2024-03-02T02:40:55;8.90;99.90
324;DHT22;149;51.094;17.002;2024-03-02T02:43:23;9.00;99.90
324;DHT22;149;51.094;17.002;2024-03-02T02:45:50;8.70;99.90
324;DHT22;149;51.094;17.002;2024-03-02T02:48:20;8.60;99.90
324;DHT22;149;51.094;17.002;2024-03-02T02:50:47;8.60;99.90
324;DHT22;149;51.094;17.002;2024-03-02T02:53:15;8.50;99.90
324;DHT22;149;51.094;17.002;2024-03-02T02:55:43;8.50;99.90
324;DHT22;149;51.094;17.002;2024-03-02T02:58:11;8.40;99.90
324;DHT22;149;51.094;17.002;2024-03-02T03:00:38;8.20;99.90
324;DHT22;149;51.094;17.002;2024-03-02T03:03:07;8.20;99.90
324;DHT22;149;51.094;17.002;2024-03-02T03:05:33;8.40;99.90
324;DHT22;149;51.094;17.002;2024-03-02T03:08:06;8.30;99.90
324;DHT22;149;51.094;17.002;2024-03-02T03:10:40;8.20;99.90
324;DHT22;149;51.094;17.002;2024-03-02T03:13:08;8.10;99.90
324;DHT22;149;51.094;17.002;2024-03-02T03:15:36;8.20;99.90
324;DHT22;149;51.094;17.002;2024-03-02T03:18:04;8.30;99.90
324;DHT22;149;51.094;17.002;2024-03-02T03:20:31;8.40;99.90
324;DHT22;149;51.094;17.002;2024-03-02T03:22:59;8.40;99.90
324;DHT22;149;51.094;17.002;2024-03-02T03:25:28;8.50;99.90
324;DHT22;149;51.094;17.002;2024-03-02T03:27:55;8.60;99.90
324;DHT22;149;51.094;17.002;2024-03-02T03:30:22;8.60;99.90
324;DHT22;149;51.094;17.002;2024-03-02T03:32:48;8.70;99.90
324;DHT22;149;51.094;17.002;2024-03-02T03:35:17;8.70;99.90
324;DHT22;149;51.094;17.002;2024-03-02T03:37:46;8.80;99.90
324;DHT22;149;51.094;17.002;2024-03-02T03:40:14;8.70;99.90
324;DHT22;149;51.094;17.002;2024-03-02T03:42:41;8.70;99.90
324;DHT22;149;51.094;17.002;2024-03-02T03:45:11;8.80;99.90
324;DHT22;149;51.094;17.002;2024-03-02T03:47:38;8.80;99.90
324;DHT22;149;51.094;17.002;2024-03-02T03:50:07;8.80;99.90
324;DHT22;149;51.094;17.002;2024-03-02T03:52:35;8.80;99.90
324;DHT22;149;51.094;17.002;2024-03-02T03:55:03;8.80;99.90
324;DHT22;149;51.094;17.002;2024-03-02T03:57:33;8.80;99.90
324;DHT22;149;51.094;17.002;2024-03-02T04:00:00;8.80;99.90
324;DHT22;149;51.094;17.002;2024-03-02T04:02:28;9.00;99.90
324;DHT22;149;51.094;17.002;2024-03-02T04:04:56;8.80;99.90
324;DHT22;149;51.094;17.002;2024-03-02T04:07:24;8.80;99.90
324;DHT22;149;51.094;17.002;2024-03-02T04:09:51;8.80;99.90
324;DHT22;149;51.094;17.002;2024-03-02T04:12:20;8.80;99.90
324;DHT22;149;51.094;17.002;2024-03-02T04:14:55;8.90;99.90
324;DHT22;149;51.094;17.002;2024-03-02T04:17:22;8.80;99.90
324;DHT22;149;51.094;17.002;2024-03-02T04:19:49;8.90;99.90
324;DHT22;149;51.094;17.002;2024-03-02T04:22:17;8.80;99.90
324;DHT22;149;51.094;17.002;2024-03-02T04:24:51;8.90;99.90
324;DHT22;149;51.094;17.002;2024-03-02T04:27:19;8.80;99.90
324;DHT22;149;51.094;17.002;2024-03-02T04:29:46;8.80;99.90
324;DHT22;149;51.094;17.002;2024-03-02T04:32:14;8.70;99.90
324;DHT22;149;51.094;17.002;2024-03-02T04:34:41;8.80;99.90
324;DHT22;149;51.094;17.002;2024-03-02T04:37:08;8.80;99.90
324;DHT22;149;51.094;17.002;2024-03-02T04:39:36;8.50;99.90
324;DHT22;149;51.094;17.002;2024-03-02T04:42:03;8.60;99.90
324;DHT22;149;51.094;17.002;2024-03-02T04:44:30;8.60;99.90
324;DHT22;149;51.094;17.002;2024-03-02T04:46:57;8.50;99.90
324;DHT22;149;51.094;17.002;2024-03-02T04:49:24;8.50;99.90
324;DHT22;149;51.094;17.002;2024-03-02T04:51:53;8.40;99.90
324;DHT22;149;51.094;17.002;2024-03-02T04:54:25;8.40;99.90
324;DHT22;149;51.094;17.002;2024-03-02T04:56:53;8.40;99.90
324;DHT22;149;51.094;17.002;2024-03-02T04:59:22;8.30;99.90
324;DHT22;149;51.094;17.002;2024-03-02T05:01:49;8.30;99.90
324;DHT22;149;51.094;17.002;2024-03-02T05:04:16;8.20;99.90
324;DHT22;149;51.094;17.002;2024-03-02T05:06:45;8.10;99.90
324;DHT22;149;51.094;17.002;2024-03-02T05:09:19;8.30;99.90
324;DHT22;149;51.094;17.002;2024-03-02T05:11:48;8.20;99.90
324;DHT22;149;51.094;17.002;2024-03-02T05:14:49;8.10;99.90
324;DHT22;149;51.094;17.002;2024-03-02T05:17:19;8.10;99.90
324;DHT22;149;51.094;17.002;2024-03-02T05:19:46;8.10;99.90
324;DHT22;149;51.094;17.002;2024-03-02T05:22:14;8.10;99.90
324;DHT22;149;51.094;17.002;2024-03-02T05:24:43;8.00;99.90
324;DHT22;149;51.094;17.002;2024-03-02T05:27:13;7.90;99.90
324;DHT22;149;51.094;17.002;2024-03-02T05:29:42;7.80;99.90
324;DHT22;149;51.094;17.002;2024-03-02T05:32:10;8.00;99.90
324;DHT22;149;51.094;17.002;2024-03-02T05:34:37;7.80;99.90
324;DHT22;149;51.094;17.002;2024-03-02T05:37:10;7.80;99.90
324;DHT22;149;51.094;17.002;2024-03-02T05:39:39;7.90;99.90
324;DHT22;149;51.094;17.002;2024-03-02T05:42:08;7.70;99.90
324;DHT22;149;51.094;17.002;2024-03-02T05:44:36;7.80;99.90
324;DHT22;149;51.094;17.002;2024-03-02T05:47:04;7.80;99.90
324;DHT22;149;51.094;17.002;2024-03-02T05:49:32;7.80;99.90
324;DHT22;149;51.094;17.002;2024-03-02T05:52:11;7.90;99.90
324;DHT22;149;51.094;17.002;2024-03-02T05:54:41;7.80;99.90
324;DHT22;149;51.094;17.002;2024-03-02T05:57:10;7.70;99.90
324;DHT22;149;51.094;17.002;2024-03-02T06:00:01;7.80;99.90
324;DHT22;149;51.094;17.002;2024-03-02T06:02:31;7.80;99.90
324;DHT22;149;51.094;17.002;2024-03-02T06:04:59;7.80;99.90
324;DHT22;149;51.094;17.002;2024-03-02T06:07:28;7.80;99.90
324;DHT22;149;51.094;17.002;2024-03-02T06:09:55;7.90;99.90
324;DHT22;149;51.094;17.002;2024-03-02T06:12:26;7.90;99.90
324;DHT22;149;51.094;17.002;2024-03-02T06:14:55;7.90;99.90
324;DHT22;149;51.094;17.002;2024-03-02T06:17:22;7.90;99.90
324;DHT22;149;51.094;17.002;2024-03-02T06:19:49;7.90;99.90
324;DHT22;149;51.094;17.002;2024-03-02T06:22:16;7.90;99.90
324;DHT22;149;51.094;17.002;2024-03-02T06:24:43;7.90;99.90
324;DHT22;149;51.094;17.002;2024-03-02T06:27:10;7.90;99.90
324;DHT22;149;51.094;17.002;2024-03-02T06:29:37;7.90;99.90
324;DHT22;149;51.094;17.002;2024-03-02T06:32:04;7.90;99.90
324;DHT22;149;51.094;17.002;2024-03-02T06:34:31;7.90;99.90
324;DHT22;149;51.094;17.002;2024-03-02T06:36:58;8.00;99.90
324;DHT22;149;51.094;17.002;2024-03-02T06:39:25;8.00;99.90
324;DHT22;149;51.094;17.002;2024-03-02T06:41:52;8.10;99.90
324;DHT22;149;51.094;17.002;2024-03-02T06:44:19;8.10;99.90
324;DHT22;149;51.094;17.002;2024-03-02T06:46:48;8.20;99.90
324;DHT22;149;51.094;17.002;2024-03-02T06:49:15;8.20;99.90
324;DHT22;149;51.094;17.002;2024-03-02T06:51:44;8.20;99.90
324;DHT22;149;51.094;17.002;2024-03-02T06:54:11;8.30;99.90
324;DHT22;149;51.094;17.002;2024-03-02T06:56:38;8.30;99.90
324;DHT22;149;51.094;17.002;2024-03-02T06:59:05;8.20;99.90
324;DHT22;149;51.094;17.002;2024-03-02T07:01:32;8.40;99.90
324;DHT22;149;51.094;17.002;2024-03-02T07:03:59;8.40;99.90
324;DHT22;149;51.094;17.002;2024-03-02T07:06:27;8.70;99.90
324;DHT22;149;51.094;17.002;2024-03-02T07:08:54;8.90;99.90
324;DHT22;149;51.094;17.002;2024-03-02T07:11:21;9.00;99.90
324;DHT22;149;51.094;17.002;2024-03-02T07:13:48;9.10;99.90
324;DHT22;149;51.094;17.002;2024-03-02T07:16:15;9.10;99.90
324;DHT22;149;51.094;17.002;2024-03-02T07:18:55;9.50;99.90
324;DHT22;149;51.094;17.002;2024-03-02T07:21:23;10.30;99.90
324;DHT22;149;51.094;17.002;2024-03-02T07:23:53;10.70;99.90
324;DHT22;149;51.094;17.002;2024-03-02T07:26:21;11.40;99.90
324;DHT22;149;51.094;17.002;2024-03-02T07:28:51;11.60;99.90
324;DHT22;149;51.094;17.002;2024-03-02T07:31:23;12.20;99.90
324;DHT22;149;51.094;17.002;2024-03-02T07:33:58;12.00;99.90
324;DHT22;149;51.094;17.002;2024-03-02T07:36:28;11.90;99.90
324;DHT22;149;51.094;17.002;2024-03-02T07:38:56;12.80;99.90
324;DHT22;149;51.094;17.002;2024-03-02T07:41:23;13.60;99.90
324;DHT22;149;51.094;17.002;2024-03-02T07:43:50;14.20;99.90
324;DHT22;149;51.094;17.002;2024-03-02T07:46:17;14.50;99.90
324;DHT22;149;51.094;17.002;2024-03-02T07:48:44;13.20;99.90
324;DHT22;149;51.094;17.002;2024-03-02T07:51:11;13.70;99.90
324;DHT22;149;51.094;17.002;2024-03-02T07:53:38;13.80;99.90
324;DHT22;149;51.094;17.002;2024-03-02T07:56:05;14.80;99.90
324;DHT22;149;51.094;17.002;2024-03-02T07:58:33;15.20;99.90
324;DHT22;149;51.094;17.002;2024-03-02T08:01:05;15.10;99.90
324;DHT22;149;51.094;17.002;2024-03-02T08:03:32;15.70;99.90
324;DHT22;149;51.094;17.002;2024-03-02T08:06:01;14.50;99.90
324;DHT22;149;51.094;17.002;2024-03-02T08:08:28;14.80;99.90
324;DHT22;149;51.094;17.002;2024-03-02T08:10:55;15.00;99.90
324;DHT22;149;51.094;17.002;2024-03-02T08:13:24;15.40;99.90
324;DHT22;149;51.094;17.002;2024-03-02T08:15:51;15.10;99.90
324;DHT22;149;51.094;17.002;2024-03-02T08:18:18;13.40;99.90
324;DHT22;149;51.094;17.002;2024-03-02T08:20:46;13.50;99.90
324;DHT22;149;51.094;17.002;2024-03-02T08:23:15;13.70;99.90
324;DHT22;149;51.094;17.002;2024-03-02T08:25:42;13.20;99.90
324;DHT22;149;51.094;17.002;2024-03-02T08:28:09;13.80;99.90
324;DHT22;149;51.094;17.002;2024-03-02T08:30:36;13.60;99.90
324;DHT22;149;51.094;17.002;2024-03-02T08:33:03;13.50;99.90
324;DHT22;149;51.094;17.002;2024-03-02T08:35:31;12.50;99.90
324;DHT22;149;51.094;17.002;2024-03-02T08:38:03;12.30;99.90
324;DHT22;149;51.094;17.002;2024-03-02T08:40:31;12.50;99.90
324;DHT22;149;51.094;17.002;2024-03-02T08:42:58;12.80;99.90
324;DHT22;149;51.094;17.002;2024-03-02T08:45:25;13.20;99.90
324;DHT22;149;51.094;17.002;2024-03-02T08:47:52;12.90;99.90
324;DHT22;149;51.094;17.002;2024-03-02T08:50:19;13.20;99.90
324;DHT22;149;51.094;17.002;2024-03-02T08:52:46;13.70;99.90
324;DHT22;149;51.094;17.002;2024-03-02T08:55:13;13.60;99.90
324;DHT22;149;51.094;17.002;2024-03-02T08:57:40;13.20;99.90
324;DHT22;149;51.094;17.002;2024-03-02T09:00:09;13.30;99.90
324;DHT22;149;51.094;17.002;2024-03-02T09:02:36;13.80;99.90
324;DHT22;149;51.094;17.002;2024-03-02T09:05:04;13.70;99.90
324;DHT22;149;51.094;17.002;2024-03-02T09:07:32;13.60;99.90
324;DHT22;149;51.094;17.002;2024-03-02T09:09:58;13.60;99.90
324;DHT22;149;51.094;17.002;2024-03-02T09:12:26;13.50;99.90
324;DHT22;149;51.094;17.002;2024-03-02T09:14:53;13.20;99.90
324;DHT22;149;51.094;17.002;2024-03-02T09:17:19;13.20;99.90
324;DHT22;149;51.094;17.002;2024-03-02T09:19:47;13.40;99.90
324;DHT22;149;51.094;17.002;2024-03-02T09:22:14;13.50;99.90
324;DHT22;149;51.094;17.002;2024-03-02T09:24:41;13.30;99.90
324;DHT22;149;51.094;17.002;2024-03-02T09:27:08;13.20;99.90
324;DHT22;149;51.094;17.002;2024-03-02T09:29:35;13.30;99.90
324;DHT22;149;51.094;17.002;2024-03-02T09:32:03;13.50;99.90
324;DHT22;149;51.094;17.002;2024-03-02T09:34:30;13.30;99.90
324;DHT22;149;51.094;17.002;2024-03-02T09:36:57;13.30;99.90
324;DHT22;149;51.094;17.002;2024-03-02T09:39:24;13.50;99.90
324;DHT22;149;51.094;17.002;2024-03-02T09:41:54;13.60;99.90
324;DHT22;149;51.094;17.002;2024-03-02T09:44:21;13.80;99.90
324;DHT22;149;51.094;17.002;2024-03-02T09:46:49;13.60;99.90
324;DHT22;149;51.094;17.002;2024-03-02T09:49:16;13.80;99.90
324;DHT22;149;51.094;17.002;2024-03-02T09:51:48;14.10;99.90
324;DHT22;149;51.094;17.002;2024-03-02T09:54:15;13.90;99.90
324;DHT22;149;51.094;17.002;2024-03-02T09:56:49;13.60;99.90
324;DHT22;149;51.094;17.002;2024-03-02T09:59:17;13.50;99.90
324;DHT22;149;51.094;17.002;2024-03-02T10:01:57;13.70;99.90
324;DHT22;149;51.094;17.002;2024-03-02T10:04:29;13.80;99.90
324;DHT22;149;51.094;17.002;2024-03-02T10:07:14;13.80;99.90
324;DHT22;149;51.094;17.002;2024-03-02T10:09:42;13.50;99.90
324;DHT22;149;51.094;17.002;2024-03-02T10:12:11;13.60;99.90
324;DHT22;149;51.094;17.002;2024-03-02T10:14:39;13.60;99.90
324;DHT22;149;51.094;17.002;2024-03-02T10:17:08;13.60;99.90
324;DHT22;149;51.094;17.002;2024-03-02T10:19:36;13.50;99.90
324;DHT22;149;51.094;17.002;2024-03-02T10:22:05;13.50;99.90
324;DHT22;149;51.094;17.002;2024-03-02T10:27:39;13.50;99.90
324;DHT22;149;51.094;17.002;2024-03-02T10:30:07;14.00;99.90
324;DHT22;149;51.094;17.002;2024-03-02T10:32:38;14.10;99.90
324;DHT22;149;51.094;17.002;2024-03-02T10:35:06;14.30;99.90
324;DHT22;149;51.094;17.002;2024-03-02T10:37:33;14.20;99.90
324;DHT22;149;51.094;17.002;2024-03-02T10:40:05;14.10;99.90
324;DHT22;149;51.094;17.002;2024-03-02T10:42:32;13.90;99.90
324;DHT22;149;51.094;17.002;2024-03-02T10:44:59;13.90;99.90
324;DHT22;149;51.094;17.002;2024-03-02T10:47:27;14.10;99.90
324;DHT22;149;51.094;17.002;2024-03-02T10:49:57;14.10;99.90
324;DHT22;149;51.094;17.002;2024-03-02T10:52:25;14.20;99.90
324;DHT22;149;51.094;17.002;2024-03-02T10:54:52;14.20;99.90
324;DHT22;149;51.094;17.002;2024-03-02T10:57:21;14.20;99.90
324;DHT22;149;51.094;17.002;2024-03-02T10:59:56;14.10;99.90
324;DHT22;149;51.094;17.002;2024-03-02T11:02:24;14.30;99.90
324;DHT22;149;51.094;17.002;2024-03-02T11:04:55;14.40;99.90
324;DHT22;149;51.094;17.002;2024-03-02T11:07:23;14.30;99.90
324;DHT22;149;51.094;17.002;2024-03-02T11:09:56;14.50;99.90
324;DHT22;149;51.094;17.002;2024-03-02T11:12:29;14.50;99.90
324;DHT22;149;51.094;17.002;2024-03-02T11:14:58;14.40;99.90
324;DHT22;149;51.094;17.002;2024-03-02T11:17:27;14.20;99.90
324;DHT22;149;51.094;17.002;2024-03-02T11:19:55;14.20;99.90
324;DHT22;149;51.094;17.002;2024-03-02T11:22:22;14.20;99.90
324;DHT22;149;51.094;17.002;2024-03-02T11:24:50;14.30;99.90
324;DHT22;149;51.094;17.002;2024-03-02T11:33:07;14.50;99.90
324;DHT22;149;51.094;17.002;2024-03-02T11:35:35;14.70;99.90
324;DHT22;149;51.094;17.002;2024-03-02T11:38:04;14.60;99.90
324;DHT22;149;51.094;17.002;2024-03-02T11:40:31;14.50;99.90
324;DHT22;149;51.094;17.002;2024-03-02T11:43:01;14.40;99.90
324;DHT22;149;51.094;17.002;2024-03-02T11:45:28;14.20;99.90
324;DHT22;149;51.094;17.002;2024-03-02T11:47:58;14.40;99.90
324;DHT22;149;51.094;17.002;2024-03-02T11:50:46;14.60;99.90
324;DHT22;149;51.094;17.002;2024-03-02T11:53:14;14.50;99.90
324;DHT22;149;51.094;17.002;2024-03-02T11:55:41;14.70;99.90
324;DHT22;149;51.094;17.002;2024-03-02T11:58:15;14.80;99.90
324;DHT22;149;51.094;17.002;2024-03-02T12:00:50;14.70;99.90
324;DHT22;149;51.094;17.002;2024-03-02T12:03:21;14.70;99.90
324;DHT22;149;51.094;17.002;2024-03-02T12:05:50;14.60;99.90
324;DHT22;149;51.094;17.002;2024-03-02T12:08:17;14.70;99.90
324;DHT22;149;51.094;17.002;2024-03-02T12:10:57;14.80;99.90
324;DHT22;149;51.094;17.002;2024-03-02T12:13:24;14.80;99.90
324;DHT22;149;51.094;17.002;2024-03-02T12:15:53;14.80;99.90
324;DHT22;149;51.094;17.002;2024-03-02T12:18:21;14.90;99.90
324;DHT22;149;51.094;17.002;2024-03-02T12:20:49;14.80;99.90
324;DHT22;149;51.094;17.002;2024-03-02T12:23:23;14.70;99.90
324;DHT22;149;51.094;17.002;2024-03-02T12:25:50;14.70;99.90
324;DHT22;149;51.094;17.002;2024-03-02T12:28:17;14.70;99.90
324;DHT22;149;51.094;17.002;2024-03-02T12:30:46;14.70;99.90
324;DHT22;149;51.094;17.002;2024-03-02T12:33:14;14.80;99.90
324;DHT22;149;51.094;17.002;2024-03-02T12:35:42;14.90;99.90
324;DHT22;149;51.094;17.002;2024-03-02T12:38:09;14.90;99.90
324;DHT22;149;51.094;17.002;2024-03-02T12:40:38;14.70;99.90
324;DHT22;149;51.094;17.002;2024-03-02T12:43:06;14.90;99.90
324;DHT22;149;51.094;17.002;2024-03-02T12:45:34;15.00;99.90
324;DHT22;149;51.094;17.002;2024-03-02T12:48:03;15.00;99.90
324;DHT22;149;51.094;17.002;2024-03-02T12:50:31;14.90;99.90
324;DHT22;149;51.094;17.002;2024-03-02T12:52:58;14.70;99.90
324;DHT22;149;51.094;17.002;2024-03-02T12:55:25;14.70;99.90
324;DHT22;149;51.094;17.002;2024-03-02T12:57:53;14.80;99.90
324;DHT22;149;51.094;17.002;2024-03-02T13:00:21;15.00;99.90
324;DHT22;149;51.094;17.002;2024-03-02T13:02:50;15.20;99.90
324;DHT22;149;51.094;17.002;2024-03-02T13:05:18;15.00;99.90
324;DHT22;149;51.094;17.002;2024-03-02T13:07:50;15.20;99.90
324;DHT22;149;51.094;17.002;2024-03-02T13:10:17;15.10;99.90
324;DHT22;149;51.094;17.002;2024-03-02T13:12:45;15.30;99.90
324;DHT22;149;51.094;17.002;2024-03-02T13:15:15;15.00;99.90
324;DHT22;149;51.094;17.002;2024-03-02T13:17:46;15.30;99.90
324;DHT22;149;51.094;17.002;2024-03-02T13:20:14;15.20;99.90
324;DHT22;149;51.094;17.002;2024-03-02T13:22:42;15.20;99.90
324;DHT22;149;51.094;17.002;2024-03-02T13:25:09;15.30;99.90
324;DHT22;149;51.094;17.002;2024-03-02T13:27:38;15.30;99.90
324;DHT22;149;51.094;17.002;2024-03-02T13:30:06;15.10;99.90
324;DHT22;149;51.094;17.002;2024-03-02T13:32:36;15.30;99.90
324;DHT22;149;51.094;17.002;2024-03-02T13:35:05;15.00;99.90
324;DHT22;149;51.094;17.002;2024-03-02T13:37:32;15.00;99.90
324;DHT22;149;51.094;17.002;2024-03-02T13:40:00;15.00;99.90
324;DHT22;149;51.094;17.002;2024-03-02T13:42:27;15.10;99.90
324;DHT22;149;51.094;17.002;2024-03-02T13:44:54;14.90;99.90
324;DHT22;149;51.094;17.002;2024-03-02T13:47:21;14.90;99.90
324;DHT22;149;51.094;17.002;2024-03-02T13:49:48;14.90;99.90
324;DHT22;149;51.094;17.002;2024-03-02T13:52:16;14.90;99.90
324;DHT22;149;51.094;17.002;2024-03-02T13:54:47;14.90;99.90
324;DHT22;149;51.094;17.002;2024-03-02T13:57:15;14.70;99.90
324;DHT22;149;51.094;17.002;2024-03-02T13:59:44;14.60;99.90
324;DHT22;149;51.094;17.002;2024-03-02T14:02:11;14.90;99.90
324;DHT22;149;51.094;17.002;2024-03-02T14:04:39;14.90;99.90
324;DHT22;149;51.094;17.002;2024-03-02T14:07:06;14.70;99.90
324;DHT22;149;51.094;17.002;2024-03-02T14:09:34;14.70;99.90
324;DHT22;149;51.094;17.002;2024-03-02T14:12:03;14.60;99.90
324;DHT22;149;51.094;17.002;2024-03-02T14:14:30;14.60;99.90
324;DHT22;149;51.094;17.002;2024-03-02T14:16:57;14.50;99.90
324;DHT22;149;51.094;17.002;2024-03-02T14:19:31;14.40;99.90
324;DHT22;149;51.094;17.002;2024-03-02T14:21:58;14.50;99.90
324;DHT22;149;51.094;17.002;2024-03-02T14:24:26;14.40;99.90
324;DHT22;149;51.094;17.002;2024-03-02T14:26:55;14.40;99.90
324;DHT22;149;51.094;17.002;2024-03-02T14:29:36;14.30;99.90
324;DHT22;149;51.094;17.002;2024-03-02T14:32:05;14.20;99.90
324;DHT22;149;51.094;17.002;2024-03-02T14:34:35;14.00;99.90
324;DHT22;149;51.094;17.002;2024-03-02T14:37:04;13.90;99.90
324;DHT22;149;51.094;17.002;2024-03-02T14:39:33;13.90;99.90
324;DHT22;149;51.094;17.002;2024-03-02T14:42:01;13.80;99.90
324;DHT22;149;51.094;17.002;2024-03-02T14:44:29;13.80;99.90
324;DHT22;149;51.094;17.002;2024-03-02T14:46:56;13.80;99.90
324;DHT22;149;51.094;17.002;2024-03-02T14:49:26;13.80;99.90
324;DHT22;149;51.094;17.002;2024-03-02T14:51:53;13.80;99.90
324;DHT22;149;51.094;17.002;2024-03-02T14:54:20;13.70;99.90
324;DHT22;149;51.094;17.002;2024-03-02T14:56:47;13.70;99.90
324;DHT22;149;51.094;17.002;2024-03-02T14:59:14;13.60;99.90
324;DHT22;149;51.094;17.002;2024-03-02T15:01:41;13.60;99.90
324;DHT22;149;51.094;17.002;2024-03-02T15:04:11;13.50;99.90
324;DHT22;149;51.094;17.002;2024-03-02T15:06:38;13.60;99.90
324;DHT22;149;51.094;17.002;2024-03-02T15:09:07;13.50;99.90
324;DHT22;149;51.094;17.002;2024-03-02T15:11:35;13.40;99.90
324;DHT22;149;51.094;17.002;2024-03-02T15:14:02;13.40;99.90
324;DHT22;149;51.094;17.002;2024-03-02T15:16:29;13.40;99.90
324;DHT22;149;51.094;17.002;2024-03-02T15:18:56;13.30;99.90
324;DHT22;149;51.094;17.002;2024-03-02T15:21:23;13.30;99.90
324;DHT22;149;51.094;17.002;2024-03-02T15:23:50;13.30;99.90
324;DHT22;149;51.094;17.002;2024-03-02T15:26:18;13.40;99.90
324;DHT22;149;51.094;17.002;2024-03-02T15:28:45;13.20;99.90
324;DHT22;149;51.094;17.002;2024-03-02T15:31:12;13.20;99.90
324;DHT22;149;51.094;17.002;2024-03-02T15:33:40;13.20;99.90
324;DHT22;149;51.094;17.002;2024-03-02T15:36:07;13.20;99.90
324;DHT22;149;51.094;17.002;2024-03-02T15:38:34;13.10;99.90
324;DHT22;149;51.094;17.002;2024-03-02T15:41:08;13.10;99.90
324;DHT22;149;51.094;17.002;2024-03-02T15:43:35;13.10;99.90
324;DHT22;149;51.094;17.002;2024-03-02T15:46:06;13.00;99.90
324;DHT22;149;51.094;17.002;2024-03-02T15:48:34;13.00;99.90
324;DHT22;149;51.094;17.002;2024-03-02T15:51:01;13.00;99.90
324;DHT22;149;51.094;17.002;2024-03-02T15:53:32;13.00;99.90
324;DHT22;149;51.094;17.002;2024-03-02T15:56:00;12.90;99.90
324;DHT22;149;51.094;17.002;2024-03-02T15:58:27;12.90;99.90
324;DHT22;149;51.094;17.002;2024-03-02T16:00:54;12.90;99.90
324;DHT22;149;51.094;17.002;2024-03-02T16:03:21;12.90;99.90
324;DHT22;149;51.094;17.002;2024-03-02T16:05:48;12.90;99.90
324;DHT22;149;51.094;17.002;2024-03-02T16:08:15;12.80;99.90
324;DHT22;149;51.094;17.002;2024-03-02T16:10:42;12.80;99.90
324;DHT22;149;51.094;17.002;2024-03-02T16:13:08;12.80;99.90
324;DHT22;149;51.094;17.002;2024-03-02T16:15:35;12.80;99.90
324;DHT22;149;51.094;17.002;2024-03-02T16:18:03;12.70;99.90
324;DHT22;149;51.094;17.002;2024-03-02T16:20:30;12.60;99.90
324;DHT22;149;51.094;17.002;2024-03-02T16:22:57;12.60;99.90
324;DHT22;149;51.094;17.002;2024-03-02T16:25:24;12.60;99.90
324;DHT22;149;51.094;17.002;2024-03-02T16:27:52;12.60;99.90
324;DHT22;149;51.094;17.002;2024-03-02T16:30:19;12.60;99.90
324;DHT22;149;51.094;17.002;2024-03-02T16:32:51;12.50;99.90
324;DHT22;149;51.094;17.002;2024-03-02T16:35:18;12.50;99.90
324;DHT22;149;51.094;17.002;2024-03-02T16:37:45;12.50;99.90
324;DHT22;149;51.094;17.002;2024-03-02T16:40:13;12.40;99.90
324;DHT22;149;51.094;17.002;2024-03-02T16:42:40;12.40;99.90